Cadosia, New York
Current Conditions -  °F | °C
As of 5:15 PM on Saturday 20 Dec 2014 (Local Time) from KMSV Reporting Station
Overcast Overcast  
Wind Chill: 21°   Ceiling: 1700
Heat Index: 27°   Visibility: 10mi
Dew Point: 19°   Wind: 5mph
Humidity: 74%   Direction: 290°WNW
Pressure: 30.21"   Gusts: NA
Location:  41.9099°N, 75.1815°W
Report Text: KMSV 202215Z AUTO 29004KT 10SM OVC017 M03/M07 A3021 RMK AO1
Loading
Personal Weather Stations






























Interactive Weather Map New forecast layout! Learn more

10-Day Weather Forecast

Advertisements
Track Severe Weather on mobile